Destin, FL

11:46 AM CDT on July 29, 2016 (GMT -0500)
Destin Water Users | | Change Station

Elev 26 ft 30.39 °N, 86.48 °W | Updated 4 seconds ago

Clear
Clear
92.5 °F
Feels Like 106 °F
N
4.4
Wind Variable Wind from SSW
Gusts 8.0 mph

Today
High -- | Low -- °F
--% Chance of Precip.
Yesterday
High -- | Low -- °F
Precip. -- in
Pressure 30.06 in
Visibility 10.0 miles
Clouds Clear
Heat Index 106 °F
Dew Point 76 °F
Humidity 60%
Rainfall 0.00 in
Snow Depth Not available.
6:02 AM 7:41 PM
Waning Crescent, 20% visible
METAR KDTS 291553Z AUTO 23006KT 10SM CLR 33/26 A3006 RMK AO2 SLP177 T03280261 TSNO
Pressure 30.06 in
Visibility 10.0 miles
Clouds Clear
Heat Index 106 °F
Dew Point 76 °F
Humidity 60%
Rainfall 0.00 in
Snow Depth Not available.
6:02 AM 7:41 PM
Waning Crescent, 20% visible
METAR KDTS 291553Z AUTO 23006KT 10SM CLR 33/26 A3006 RMK AO2 SLP177 T03280261 TSNO

10-Day Weather Forecast

Almanac

Astronomy

Jul. 29, 2016 Rise Set
Actual Time
Civil Twilight
Nautical Twilight
Astronomical Twilight
Moon
Length of Visible Light
Length of Day
Tomorrow will be .
, % of the Moon is Illuminated

Today's Extremes

State Highs State Lows

Community

WunderPhotos

Upload Photos

1,928,378 photos uploaded!

WunderBlog® & News

Nearby

Air Quality

  Air Quality AQ Index Pollutant
Not available.

Snow Depth

Station Depth Elevation

Earthquake Activity

City Distance Mag. Time & Date
Minimum magnitude displayed is 2.5.

Coastal Water Temperatures

Place Temperature

Stations

Nearby Weather Stations

Station Location Temp. Windchill Dew Point Humidity Wind Precip. Elev Updated Type
                   

Watches & Warnings

There are currently no watches in effect.